Time;durP1;ratioP1;P1;durP2;ratioP2;P2;SDS_P1;SDS_P2;PMS_P1;PMS_P2;Temp;Humidity;BMP_temperature;BMP_pressure;BME280_temperature;BME280_humidity;BME280_pressure;Samples;Min_cycle;Max_cycle;Signal;HPM_P1;HPM_P2
2023/05/24 00:02:12;;;;;;;9.20;3.60;;;8.90;99.90;;;;;;4954792;28;20224;-64
2023/05/24 00:04:43;;;;;;;16.13;3.97;;;8.80;99.90;;;;;;4947094;28;20236;-63
2023/05/24 00:07:12;;;;;;;12.90;3.97;;;8.80;99.90;;;;;;4950863;28;20251;-63
2023/05/24 00:09:40;;;;;;;8.77;3.50;;;8.90;99.90;;;;;;4944955;28;20193;-64
2023/05/24 00:12:09;;;;;;;15.77;4.27;;;8.80;99.90;;;;;;4951809;28;20216;-64
2023/05/24 00:14:38;;;;;;;9.90;3.70;;;8.80;99.90;;;;;;4951119;28;20228;-64
2023/05/24 00:17:06;;;;;;;13.43;3.90;;;8.80;99.90;;;;;;4952218;28;20612;-64
2023/05/24 00:19:37;;;;;;;10.33;4.13;;;8.70;99.90;;;;;;4951463;28;20320;-64
2023/05/24 00:22:06;;;;;;;14.53;4.43;;;8.70;99.90;;;;;;4953302;28;20267;-64
2023/05/24 00:24:35;;;;;;;11.00;3.97;;;8.60;99.90;;;;;;4950924;28;20220;-64
2023/05/24 00:27:03;;;;;;;14.97;4.27;;;8.60;99.90;;;;;;4950397;28;20192;-64
2023/05/24 00:29:32;;;;;;;13.67;4.13;;;8.60;99.90;;;;;;4952037;28;20224;-63
2023/05/24 00:32:00;;;;;;;13.83;5.00;;;8.60;99.90;;;;;;4949793;28;20220;-64
2023/05/24 00:34:29;;;;;;;14.40;4.53;;;8.60;99.90;;;;;;4953379;28;20236;-64
2023/05/24 00:36:57;;;;;;;13.33;4.43;;;8.50;99.90;;;;;;4951351;28;20236;-64
2023/05/24 00:39:27;;;;;;;10.40;3.83;;;8.50;99.90;;;;;;4952566;28;20852;-63
2023/05/24 00:41:55;;;;;;;14.60;4.40;;;8.50;99.90;;;;;;4947914;29;20192;-64
2023/05/24 00:44:23;;;;;;;18.63;3.90;;;8.50;99.90;;;;;;4952320;28;20702;-64
2023/05/24 00:46:52;;;;;;;16.37;4.20;;;8.50;99.90;;;;;;4948947;28;20220;-64
2023/05/24 00:49:21;;;;;;;12.73;4.50;;;8.50;99.90;;;;;;4949469;28;20224;-64
2023/05/24 00:51:51;;;;;;;13.23;4.23;;;8.40;99.90;;;;;;4945433;28;20232;-64
2023/05/24 00:54:19;;;;;;;14.63;4.43;;;8.40;99.90;;;;;;4946279;28;20682;-64
2023/05/24 00:56:49;;;;;;;15.83;4.20;;;8.50;99.90;;;;;;4951057;28;20235;-64
2023/05/24 00:59:18;;;;;;;14.57;4.77;;;8.50;99.90;;;;;;4949560;28;20232;-64
2023/05/24 01:01:46;;;;;;;12.30;4.27;;;8.40;99.90;;;;;;4949745;28;20235;-64
2023/05/24 01:04:16;;;;;;;15.70;4.73;;;8.40;99.90;;;;;;4949841;28;20231;-64
2023/05/24 01:07:06;;;;;;;11.97;4.40;;;8.40;99.90;;;;;;4948877;28;20231;-64
2023/05/24 01:09:50;;;;;;;14.93;4.10;;;8.40;99.90;;;;;;4948252;28;20219;-64
2023/05/24 01:12:30;;;;;;;10.50;3.90;;;8.30;99.90;;;;;;4948221;28;20204;-64
2023/05/24 01:15:09;;;;;;;18.90;5.57;;;8.40;99.90;;;;;;4948986;28;20222;-64
2023/05/24 01:17:47;;;;;;;16.97;5.23;;;8.40;99.90;;;;;;4951572;28;20231;-64
2023/05/24 01:20:19;;;;;;;16.73;4.93;;;8.40;99.90;;;;;;4947462;28;20228;-64
2023/05/24 01:23:18;;;;;;;17.07;4.70;;;8.40;99.90;;;;;;4948831;28;20223;-64
2023/05/24 01:26:12;;;;;;;16.17;4.60;;;8.40;99.90;;;;;;4935531;28;20235;-64
2023/05/24 01:28:43;;;;;;;13.10;4.87;;;8.30;99.90;;;;;;4943479;28;20220;-64
2023/05/24 01:31:12;;;;;;;13.27;4.30;;;8.30;99.90;;;;;;4948856;28;20343;-64
2023/05/24 01:33:42;;;;;;;16.70;4.57;;;8.30;99.90;;;;;;4948809;28;20578;-63
2023/05/24 01:36:11;;;;;;;13.17;4.60;;;8.30;99.90;;;;;;4949990;28;20243;-64
2023/05/24 01:38:40;;;;;;;8.80;4.30;;;8.20;99.90;;;;;;4948642;28;20226;-64
2023/05/24 01:41:26;;;;;;;9.73;4.40;;;8.00;99.90;;;;;;4949187;28;20232;-64
2023/05/24 01:44:09;;;;;;;15.87;4.50;;;7.90;99.90;;;;;;4948589;28;20625;-64
2023/05/24 01:46:38;;;;;;;17.30;4.47;;;7.90;99.90;;;;;;4949704;28;20219;-64
2023/05/24 01:49:19;;;;;;;9.37;4.80;;;7.80;99.90;;;;;;4946058;28;20223;-64
2023/05/24 01:51:50;;;;;;;8.23;4.40;;;7.80;99.90;;;;;;4948734;28;20637;-64
2023/05/24 01:54:23;;;;;;;10.33;4.87;;;7.70;99.90;;;;;;4950311;28;20560;-63
2023/05/24 01:56:54;;;;;;;11.70;4.80;;;7.70;99.90;;;;;;4945486;28;20227;-63
2023/05/24 01:59:26;;;;;;;10.13;4.60;;;7.70;99.90;;;;;;4950059;28;21041;-64
2023/05/24 02:01:55;;;;;;;10.47;4.17;;;7.80;99.90;;;;;;4947115;28;20224;-64
2023/05/24 02:04:25;;;;;;;9.57;4.57;;;7.80;99.90;;;;;;4946318;28;20258;-64
2023/05/24 02:06:53;;;;;;;8.90;4.60;;;7.70;99.90;;;;;;4949177;28;20231;-64
2023/05/24 02:09:21;;;;;;;14.60;3.90;;;7.70;99.90;;;;;;4947905;28;20766;-64
2023/05/24 02:11:50;;;;;;;13.27;5.03;;;7.60;99.90;;;;;;4949548;28;20682;-64
2023/05/24 02:14:18;;;;;;;11.47;4.40;;;7.60;99.90;;;;;;4950637;28;20243;-64
2023/05/24 02:16:49;;;;;;;13.03;4.37;;;7.60;99.90;;;;;;4951231;28;20311;-64
2023/05/24 02:19:18;;;;;;;10.47;4.27;;;7.60;99.90;;;;;;4950024;28;20228;-64
2023/05/24 02:21:46;;;;;;;9.97;4.33;;;7.50;99.90;;;;;;4948528;28;20242;-64
2023/05/24 02:24:15;;;;;;;8.87;4.67;;;7.40;99.90;;;;;;4948100;28;20222;-64
2023/05/24 02:26:43;;;;;;;10.90;4.37;;;7.30;99.90;;;;;;4947680;28;20220;-64
2023/05/24 02:29:12;;;;;;;8.70;4.33;;;7.20;99.90;;;;;;4947463;28;20788;-64
2023/05/24 02:31:40;;;;;;;15.43;4.57;;;7.10;99.90;;;;;;4949139;28;20220;-64
2023/05/24 02:34:10;;;;;;;8.87;4.30;;;7.10;99.90;;;;;;4949305;28;20327;-64
2023/05/24 02:36:38;;;;;;;16.43;4.60;;;7.10;99.90;;;;;;4948004;28;20235;-63
2023/05/24 02:39:06;;;;;;;11.90;4.63;;;7.10;99.90;;;;;;4950191;28;20196;-64
2023/05/24 02:41:35;;;;;;;12.83;4.93;;;7.10;99.90;;;;;;4948709;28;20699;-63
2023/05/24 02:44:03;;;;;;;13.23;4.37;;;7.10;99.90;;;;;;4948705;28;20317;-64
2023/05/24 02:46:31;;;;;;;14.57;4.60;;;7.10;99.90;;;;;;4947637;28;20228;-64
2023/05/24 02:49:00;;;;;;;14.47;5.10;;;7.10;99.90;;;;;;4946590;28;20259;-64
2023/05/24 02:51:31;;;;;;;14.10;4.97;;;7.00;99.90;;;;;;4951843;28;20188;-63
2023/05/24 02:53:59;;;;;;;12.27;5.10;;;7.00;99.90;;;;;;4951191;28;20211;-64
2023/05/24 02:56:28;;;;;;;13.77;4.60;;;7.00;99.90;;;;;;4947041;28;20250;-64
2023/05/24 02:58:56;;;;;;;11.33;4.90;;;7.00;99.90;;;;;;4950989;28;20227;-64
2023/05/24 03:01:25;;;;;;;10.90;4.70;;;7.00;99.90;;;;;;4948946;28;20240;-64
2023/05/24 03:03:54;;;;;;;13.50;4.93;;;7.00;99.90;;;;;;4951618;28;20228;-64
2023/05/24 03:06:22;;;;;;;9.47;4.50;;;6.80;99.90;;;;;;4952640;28;20851;-64
2023/05/24 03:08:51;;;;;;;11.83;4.60;;;6.80;99.90;;;;;;4952307;28;20219;-64
2023/05/24 03:11:21;;;;;;;9.57;5.20;;;6.80;99.90;;;;;;4952009;28;20423;-64
2023/05/24 03:13:50;;;;;;;16.57;5.97;;;6.80;99.90;;;;;;4953772;28;20227;-64
2023/05/24 03:16:18;;;;;;;14.70;5.37;;;6.80;99.90;;;;;;4954998;28;20227;-64
2023/05/24 03:18:49;;;;;;;17.73;6.60;;;6.70;99.90;;;;;;4951390;28;20310;-64
2023/05/24 03:21:19;;;;;;;13.87;5.63;;;6.70;99.90;;;;;;4953086;28;20224;-64
2023/05/24 03:23:48;;;;;;;17.90;6.03;;;6.80;99.90;;;;;;4950805;28;20335;-64
2023/05/24 03:26:19;;;;;;;13.10;5.00;;;6.80;99.90;;;;;;4951144;28;20860;-64
2023/05/24 03:28:49;;;;;;;13.80;5.37;;;6.80;99.90;;;;;;4949554;28;20275;-64
2023/05/24 03:31:19;;;;;;;12.53;5.53;;;6.80;99.90;;;;;;4953478;28;20330;-64
2023/05/24 03:33:48;;;;;;;17.40;5.37;;;6.80;99.90;;;;;;4952054;28;20304;-64
2023/05/24 03:36:16;;;;;;;10.53;5.17;;;6.70;99.90;;;;;;4952574;28;20224;-64
2023/05/24 03:38:44;;;;;;;13.00;4.97;;;6.70;99.90;;;;;;4948398;28;20235;-64
2023/05/24 03:41:13;;;;;;;15.07;4.97;;;6.70;99.90;;;;;;4953331;28;20243;-64
2023/05/24 03:43:42;;;;;;;14.30;5.20;;;6.60;99.90;;;;;;4949985;28;20231;-64
2023/05/24 03:46:11;;;;;;;9.03;4.73;;;6.50;99.90;;;;;;4952118;28;20242;-64
2023/05/24 03:48:39;;;;;;;14.57;5.33;;;6.50;99.90;;;;;;4950366;28;21350;-63
2023/05/24 03:51:08;;;;;;;14.40;5.30;;;6.50;99.90;;;;;;4954478;28;20733;-64
2023/05/24 03:53:36;;;;;;;12.50;5.50;;;6.50;99.90;;;;;;4952605;28;20239;-64
2023/05/24 03:56:05;;;;;;;12.13;5.17;;;6.50;99.90;;;;;;4950042;28;20610;-64
2023/05/24 03:58:33;;;;;;;15.80;5.00;;;6.50;99.90;;;;;;4951941;28;20865;-64
2023/05/24 04:01:03;;;;;;;16.77;5.33;;;6.60;99.90;;;;;;4947932;28;20220;-63
2023/05/24 04:03:32;;;;;;;9.67;4.97;;;6.60;99.90;;;;;;4949066;28;20195;-63
2023/05/24 04:06:01;;;;;;;14.83;5.80;;;6.60;99.90;;;;;;4949800;28;20215;-64
2023/05/24 04:08:30;;;;;;;19.40;6.23;;;6.60;99.90;;;;;;4954639;28;20319;-64
2023/05/24 04:10:58;;;;;;;16.70;6.30;;;6.70;99.90;;;;;;4948240;28;20230;-64
2023/05/24 04:13:27;;;;;;;19.40;5.77;;;6.70;99.90;;;;;;4947454;28;20224;-64
2023/05/24 04:15:55;;;;;;;14.03;5.97;;;6.80;99.90;;;;;;4952446;28;20232;-63
2023/05/24 04:18:25;;;;;;;17.20;6.30;;;6.80;99.90;;;;;;4951251;28;20196;-58
2023/05/24 04:20:53;;;;;;;14.97;5.33;;;6.80;99.90;;;;;;4951556;28;20895;-64
2023/05/24 04:23:22;;;;;;;15.87;5.60;;;6.70;99.90;;;;;;4951828;28;20224;-64
2023/05/24 04:25:50;;;;;;;16.77;6.20;;;6.70;99.90;;;;;;4950140;28;20645;-64
2023/05/24 04:28:21;;;;;;;12.60;5.40;;;6.70;99.90;;;;;;4951919;28;20215;-64
2023/05/24 04:30:50;;;;;;;21.67;6.63;;;6.80;99.90;;;;;;4950879;28;20348;-64
2023/05/24 04:33:18;;;;;;;19.40;6.47;;;6.80;99.90;;;;;;4952974;28;20188;-64
2023/05/24 04:35:48;;;;;;;18.87;6.83;;;6.90;99.90;;;;;;4948151;28;20584;-64
2023/05/24 04:38:18;;;;;;;15.87;6.00;;;7.00;99.90;;;;;;4949762;28;20216;-64
2023/05/24 04:40:48;;;;;;;18.63;6.63;;;7.00;99.90;;;;;;4948735;28;20314;-64
2023/05/24 04:43:17;;;;;;;12.10;5.70;;;7.10;99.90;;;;;;4951854;28;20211;-64
2023/05/24 04:45:45;;;;;;;16.57;6.00;;;7.20;99.90;;;;;;4944422;28;20295;-64
2023/05/24 04:48:13;;;;;;;19.13;6.37;;;7.20;99.90;;;;;;4948612;28;20211;-64
2023/05/24 04:50:42;;;;;;;18.60;6.50;;;7.40;99.90;;;;;;4943112;28;20224;-64
2023/05/24 04:53:12;;;;;;;19.60;6.97;;;7.50;99.90;;;;;;4953521;28;20283;-64
2023/05/24 04:55:41;;;;;;;18.73;6.80;;;7.60;99.90;;;;;;4948516;28;20224;-64
2023/05/24 04:58:10;;;;;;;17.80;6.43;;;7.70;99.90;;;;;;4948322;28;20591;-64
2023/05/24 05:00:38;;;;;;;15.80;6.10;;;7.80;99.90;;;;;;4950252;28;20200;-64
2023/05/24 05:03:06;;;;;;;15.20;5.87;;;7.90;99.90;;;;;;4944163;28;20328;-64
2023/05/24 05:05:35;;;;;;;13.43;6.40;;;8.00;99.90;;;;;;4948269;28;20231;-64
2023/05/24 05:08:04;;;;;;;15.03;6.17;;;8.10;99.90;;;;;;4949953;28;20228;-64
2023/05/24 05:10:33;;;;;;;17.30;6.43;;;8.20;99.90;;;;;;4952501;28;20674;-64
2023/05/24 05:13:02;;;;;;;26.73;6.03;;;8.30;99.90;;;;;;4948493;28;20239;-64
2023/05/24 05:15:30;;;;;;;16.60;6.30;;;8.50;99.90;;;;;;4951364;28;20211;-64
2023/05/24 05:17:59;;;;;;;22.83;6.13;;;8.60;99.90;;;;;;4950039;28;20211;-64
2023/05/24 05:20:27;;;;;;;23.20;6.97;;;8.70;99.90;;;;;;4948294;28;20247;-64
2023/05/24 05:22:56;;;;;;;19.87;6.30;;;8.80;99.90;;;;;;4949160;28;20224;-64
2023/05/24 05:25:24;;;;;;;18.37;6.57;;;8.80;99.90;;;;;;4945967;28;20258;-64
2023/05/24 05:27:54;;;;;;;18.50;6.63;;;8.90;99.90;;;;;;4946974;28;20238;-64
2023/05/24 05:30:22;;;;;;;24.07;6.23;;;9.00;99.90;;;;;;4949938;28;20208;-64
2023/05/24 05:32:50;;;;;;;21.97;6.70;;;9.10;99.90;;;;;;4942196;28;20224;-64
2023/05/24 05:35:19;;;;;;;19.77;6.33;;;9.20;99.90;;;;;;4946475;28;20227;-64
2023/05/24 05:37:47;;;;;;;22.13;6.47;;;9.30;99.90;;;;;;4949410;28;20319;-64
2023/05/24 05:40:15;;;;;;;15.00;6.43;;;9.40;99.90;;;;;;4950791;28;20249;-64
2023/05/24 05:42:46;;;;;;;14.00;5.87;;;9.50;99.90;;;;;;4948912;28;20326;-64
2023/05/24 05:45:15;;;;;;;16.77;5.90;;;9.60;99.90;;;;;;4950748;28;20534;-64
2023/05/24 05:47:43;;;;;;;20.00;6.77;;;9.70;99.90;;;;;;4950965;28;20231;-64
2023/05/24 05:50:12;;;;;;;22.43;6.40;;;9.90;99.90;;;;;;4951038;28;20250;-64
2023/05/24 05:52:40;;;;;;;17.93;6.40;;;10.10;99.90;;;;;;4950456;28;20231;-64
2023/05/24 05:55:10;;;;;;;15.33;6.13;;;10.30;99.90;;;;;;4949409;28;20259;-64
2023/05/24 05:57:39;;;;;;;18.93;6.67;;;10.50;99.90;;;;;;4949249;28;20227;-64
2023/05/24 06:00:09;;;;;;;20.87;6.40;;;10.60;99.90;;;;;;4951747;28;20530;-64
2023/05/24 06:02:39;;;;;;;14.37;5.23;;;10.60;99.90;;;;;;4944143;28;20238;-64
2023/05/24 06:05:08;;;;;;;19.03;6.53;;;10.80;99.90;;;;;;4948538;28;20248;-64
2023/05/24 06:07:37;;;;;;;21.07;6.10;;;11.10;99.90;;;;;;4947441;28;20220;-65
2023/05/24 06:10:06;;;;;;;14.80;5.80;;;11.20;99.90;;;;;;4951726;28;20622;-64
2023/05/24 06:12:36;;;;;;;13.17;5.73;;;11.30;99.90;;;;;;4950142;28;20291;-64
2023/05/24 06:15:06;;;;;;;17.23;5.63;;;11.40;99.90;;;;;;4948204;29;20722;-65
2023/05/24 06:17:35;;;;;;;13.50;5.33;;;11.40;99.90;;;;;;4950228;28;20215;-65
2023/05/24 06:20:07;;;;;;;18.37;5.20;;;11.50;99.90;;;;;;4944620;28;20230;-65
2023/05/24 06:22:37;;;;;;;15.37;4.97;;;11.50;99.90;;;;;;4948769;28;20224;-64
2023/05/24 06:25:06;;;;;;;16.60;5.27;;;11.60;99.90;;;;;;4945948;28;20238;-65
2023/05/24 06:27:35;;;;;;;18.57;6.00;;;11.70;99.90;;;;;;4951976;28;20551;-65
2023/05/24 06:30:03;;;;;;;18.67;5.30;;;11.80;99.90;;;;;;4951125;28;20735;-65
2023/05/24 06:32:32;;;;;;;25.40;6.10;;;12.00;99.90;;;;;;4951052;28;20223;-65
2023/05/24 06:35:00;;;;;;;18.63;5.80;;;12.20;99.90;;;;;;4950650;28;20224;-65
2023/05/24 06:37:30;;;;;;;16.87;5.43;;;12.30;99.90;;;;;;4951559;28;20246;-65
2023/05/24 06:39:58;;;;;;;15.00;4.80;;;12.40;99.90;;;;;;4951775;28;20228;-65
2023/05/24 06:42:27;;;;;;;18.93;5.03;;;12.50;99.90;;;;;;4950966;28;20567;-64
2023/05/24 06:44:55;;;;;;;17.83;4.83;;;12.70;99.90;;;;;;4950889;28;20196;-65
2023/05/24 06:47:24;;;;;;;14.53;4.70;;;12.70;99.90;;;;;;4946977;28;20239;-65
2023/05/24 06:49:52;;;;;;;12.73;5.17;;;12.80;99.90;;;;;;4942450;28;20559;-65
2023/05/24 06:52:20;;;;;;;22.73;5.30;;;12.80;99.90;;;;;;4940092;28;20255;-64
2023/05/24 06:54:50;;;;;;;13.37;4.90;;;12.80;99.90;;;;;;4947726;28;20601;-64
2023/05/24 06:57:19;;;;;;;16.30;4.77;;;12.90;99.90;;;;;;4946916;28;20203;-65
2023/05/24 06:59:47;;;;;;;18.83;5.73;;;12.90;99.90;;;;;;4945026;28;20530;-64
2023/05/24 07:02:16;;;;;;;17.87;5.43;;;13.00;99.90;;;;;;4949710;28;20228;-65
2023/05/24 07:04:44;;;;;;;17.33;4.80;;;13.00;99.90;;;;;;4942695;28;20311;-65
2023/05/24 07:07:13;;;;;;;18.80;5.30;;;13.00;99.90;;;;;;4950879;28;20229;-64
2023/05/24 07:09:43;;;;;;;19.47;5.60;;;13.20;99.90;;;;;;4945098;28;20195;-65
2023/05/24 07:12:12;;;;;;;17.37;5.13;;;13.20;99.90;;;;;;4949986;28;20246;-65
2023/05/24 07:14:41;;;;;;;20.70;5.43;;;13.30;99.90;;;;;;4950150;28;20221;-65
2023/05/24 07:17:09;;;;;;;18.70;5.30;;;13.50;99.90;;;;;;4947234;28;20228;-64
2023/05/24 07:19:38;;;;;;;17.90;5.23;;;13.80;99.90;;;;;;4948553;28;20231;-65
2023/05/24 07:22:07;;;;;;;20.87;5.30;;;14.00;99.90;;;;;;4947222;28;20233;-65
2023/05/24 07:24:35;;;;;;;16.40;5.37;;;14.30;99.90;;;;;;4947168;28;20194;-65
2023/05/24 07:27:04;;;;;;;21.63;5.50;;;14.50;99.90;;;;;;4943904;29;20209;-65
2023/05/24 07:29:33;;;;;;;18.00;5.70;;;14.70;99.90;;;;;;4941605;28;20577;-65
2023/05/24 07:32:02;;;;;;;14.73;5.40;;;14.70;99.90;;;;;;4941023;28;20223;-65
2023/05/24 07:34:31;;;;;;;17.10;5.50;;;14.70;99.90;;;;;;4951220;28;20307;-65
2023/05/24 07:36:59;;;;;;;15.70;5.30;;;14.70;99.90;;;;;;4953082;28;20248;-65
2023/05/24 07:39:28;;;;;;;13.63;4.90;;;14.90;99.90;;;;;;4955029;28;20193;-65
2023/05/24 07:41:56;;;;;;;25.47;5.67;;;15.00;99.90;;;;;;4955374;28;20541;-65
2023/05/24 07:44:24;;;;;;;17.57;4.67;;;15.00;99.90;;;;;;4953923;28;20215;-65
2023/05/24 07:46:54;;;;;;;16.03;5.27;;;15.40;99.90;;;;;;4954767;28;20223;-65
2023/05/24 07:49:23;;;;;;;15.33;5.10;;;15.80;99.90;;;;;;4953185;28;20564;-65
2023/05/24 07:51:51;;;;;;;11.57;4.30;;;15.80;99.90;;;;;;4954485;28;20220;-65
2023/05/24 07:54:20;;;;;;;15.07;4.87;;;15.80;99.90;;;;;;4954538;28;20197;-65
2023/05/24 07:56:49;;;;;;;17.33;5.07;;;15.80;99.90;;;;;;4954065;28;20259;-65
2023/05/24 07:59:17;;;;;;;13.13;4.10;;;15.80;99.90;;;;;;4952304;28;20355;-65
2023/05/24 08:01:46;;;;;;;9.73;4.13;;;15.90;99.90;;;;;;4952407;28;20227;-65
2023/05/24 08:04:16;;;;;;;13.37;5.10;;;15.80;99.90;;;;;;4950198;28;20613;-64
2023/05/24 08:06:45;;;;;;;19.37;5.43;;;15.70;99.90;;;;;;4952190;28;20326;-65
2023/05/24 08:09:14;;;;;;;15.73;5.10;;;15.60;99.90;;;;;;4953447;28;20221;-65
2023/05/24 08:11:42;;;;;;;13.80;5.03;;;15.30;99.90;;;;;;4949323;28;20216;-65
2023/05/24 08:14:10;;;;;;;15.70;5.10;;;15.10;99.90;;;;;;4953773;28;20258;-65
2023/05/24 08:16:39;;;;;;;13.90;5.17;;;14.90;99.90;;;;;;4948878;28;20235;-65
2023/05/24 08:19:07;;;;;;;13.53;4.90;;;14.90;99.90;;;;;;4961221;28;20261;-65
2023/05/24 08:21:37;;;;;;;12.90;5.10;;;14.90;99.90;;;;;;4953941;28;20194;-64
2023/05/24 08:24:06;;;;;;;12.43;5.60;;;14.80;99.90;;;;;;4950993;28;20203;-65
2023/05/24 08:26:37;;;;;;;10.47;4.83;;;14.80;99.90;;;;;;4953786;28;20220;-65
2023/05/24 08:29:05;;;;;;;18.23;4.97;;;14.70;99.90;;;;;;4955680;28;20235;-65
2023/05/24 08:31:33;;;;;;;11.63;4.80;;;14.80;99.90;;;;;;4950497;28;20745;-65
2023/05/24 08:34:02;;;;;;;15.60;5.00;;;15.00;99.90;;;;;;4953477;28;20753;-65
2023/05/24 08:36:31;;;;;;;17.20;5.77;;;15.10;99.90;;;;;;4952497;28;20236;-64
2023/05/24 08:39:01;;;;;;;13.37;4.67;;;15.30;99.90;;;;;;4951240;28;20225;-65
2023/05/24 08:41:31;;;;;;;15.27;5.10;;;15.60;99.90;;;;;;4952531;28;20230;-65
2023/05/24 08:44:01;;;;;;;16.47;5.30;;;15.80;99.90;;;;;;4953077;28;20235;-65
2023/05/24 08:46:30;;;;;;;13.90;4.63;;;15.90;99.90;;;;;;4953022;28;20246;-65
2023/05/24 08:48:59;;;;;;;16.90;5.43;;;15.90;99.90;;;;;;4950720;28;20290;-65
2023/05/24 08:51:28;;;;;;;15.63;5.23;;;16.10;99.90;;;;;;4949657;28;20199;-65
2023/05/24 08:53:57;;;;;;;10.90;4.37;;;16.30;99.90;;;;;;4948673;29;20711;-65
2023/05/24 08:56:28;;;;;;;12.47;4.60;;;16.40;99.90;;;;;;4945389;28;20999;-65
2023/05/24 08:58:57;;;;;;;16.60;4.63;;;16.40;99.90;;;;;;4943549;28;20223;-65
2023/05/24 09:01:26;;;;;;;10.90;4.23;;;16.50;99.90;;;;;;4946115;28;20225;-65
2023/05/24 09:04:00;;;;;;;10.10;3.93;;;16.40;99.90;;;;;;4950802;28;20224;-65
2023/05/24 09:06:29;;;;;;;10.07;3.77;;;16.40;99.90;;;;;;4944402;28;20208;-64
2023/05/24 09:09:00;;;;;;;13.27;4.20;;;16.40;99.90;;;;;;4945402;28;20218;-65
2023/05/24 09:11:31;;;;;;;14.93;4.17;;;16.50;99.90;;;;;;4951030;28;20703;-65
2023/05/24 09:14:01;;;;;;;9.40;4.67;;;16.50;99.90;;;;;;4951274;28;20228;-65
2023/05/24 09:16:29;;;;;;;12.40;3.80;;;16.50;99.90;;;;;;4951521;28;20752;-65
2023/05/24 09:18:58;;;;;;;16.07;4.23;;;16.50;99.90;;;;;;4942667;28;20228;-65
2023/05/24 09:21:28;;;;;;;11.53;4.33;;;16.60;99.90;;;;;;4944494;28;20206;-64
2023/05/24 09:23:57;;;;;;;6.03;4.17;;;16.60;99.90;;;;;;4951437;28;20189;-65
2023/05/24 09:26:29;;;;;;;11.77;4.50;;;16.80;99.90;;;;;;4946044;28;20224;-66
2023/05/24 09:28:58;;;;;;;12.70;4.97;;;16.90;99.90;;;;;;4943834;28;20232;-65
2023/05/24 09:31:33;;;;;;;15.43;4.27;;;16.90;99.90;;;;;;4943793;28;20231;-65
2023/05/24 09:34:02;;;;;;;12.77;5.10;;;17.30;99.90;;;;;;4944154;28;20239;-65
2023/05/24 09:36:32;;;;;;;14.50;4.87;;;17.30;99.90;;;;;;4951962;28;20295;-65
2023/05/24 09:39:08;;;;;;;12.37;5.27;;;17.40;99.90;;;;;;4952541;28;20192;-65
2023/05/24 09:41:38;;;;;;;17.03;5.50;;;17.60;99.90;;;;;;4951123;28;20215;-65
2023/05/24 09:44:07;;;;;;;16.13;5.47;;;17.80;99.90;;;;;;4953031;28;20909;-65
2023/05/24 09:46:37;;;;;;;16.07;5.93;;;17.90;99.90;;;;;;4950773;28;20224;-65
2023/05/24 09:49:07;;;;;;;14.43;4.70;;;17.90;99.90;;;;;;4951461;28;20238;-65
2023/05/24 09:51:38;;;;;;;11.03;4.90;;;17.90;99.90;;;;;;4952517;28;20195;-65
2023/05/24 09:54:07;;;;;;;13.23;5.30;;;18.20;99.90;;;;;;4951567;28;20204;-65
2023/05/24 09:56:39;;;;;;;10.07;5.13;;;18.30;99.90;;;;;;4950347;28;20556;-65
2023/05/24 09:59:09;;;;;;;13.17;5.67;;;18.40;99.90;;;;;;4951559;28;20812;-65
2023/05/24 10:01:37;;;;;;;18.27;6.00;;;18.60;99.90;;;;;;4951298;28;20216;-66
2023/05/24 10:04:06;;;;;;;13.57;5.30;;;18.60;99.90;;;;;;4952043;28;20235;-65
2023/05/24 10:06:37;;;;;;;9.23;5.30;;;18.40;99.90;;;;;;4950255;28;20254;-65
2023/05/24 10:09:06;;;;;;;16.57;5.30;;;18.30;99.90;;;;;;4950691;28;20208;-65
2023/05/24 10:11:37;;;;;;;11.97;4.53;;;18.30;99.90;;;;;;4949654;28;20314;-65
2023/05/24 10:14:06;;;;;;;10.13;4.97;;;18.30;99.90;;;;;;4951541;28;20294;-65
2023/05/24 10:16:36;;;;;;;11.53;4.53;;;18.40;99.90;;;;;;4951209;28;20327;-65
2023/05/24 10:19:06;;;;;;;8.93;4.63;;;18.70;99.90;;;;;;4952371;28;20239;-65
2023/05/24 10:21:40;;;;;;;13.53;5.53;;;19.00;99.90;;;;;;4952244;28;20196;-65
2023/05/24 10:24:11;;;;;;;9.50;5.03;;;19.80;99.90;;;;;;4952462;28;20335;-66
2023/05/24 10:26:42;;;;;;;10.10;4.70;;;20.40;99.90;;;;;;4947419;28;20233;-66
2023/05/24 10:29:18;;;;;;;13.07;5.20;;;21.10;99.90;;;;;;4950230;28;20941;-66
2023/05/24 10:31:47;;;;;;;13.90;5.00;;;21.30;99.90;;;;;;4950038;28;20250;-65
2023/05/24 10:34:16;;;;;;;14.10;5.23;;;21.70;99.90;;;;;;4946020;28;20248;-66
2023/05/24 10:36:44;;;;;;;9.53;4.67;;;22.40;99.90;;;;;;4943972;28;20244;-65
2023/05/24 10:39:13;;;;;;;11.53;5.30;;;22.40;99.90;;;;;;4949784;28;20226;-65
2023/05/24 10:41:42;;;;;;;12.93;4.87;;;21.90;99.90;;;;;;4949463;28;20760;-66
2023/05/24 10:44:12;;;;;;;11.10;5.03;;;21.70;99.90;;;;;;4949418;28;20223;-66
2023/05/24 10:47:06;;;;;;;12.63;4.80;;;21.40;99.90;;;;;;4948980;28;20216;-65
2023/05/24 10:49:35;;;;;;;12.10;4.87;;;20.90;99.90;;;;;;4945297;28;20223;-65
2023/05/24 10:52:08;;;;;;;11.37;5.00;;;20.60;99.90;;;;;;4947185;28;20906;-65
2023/05/24 10:54:37;;;;;;;12.17;5.00;;;20.20;99.90;;;;;;4947321;28;20210;-65
2023/05/24 10:57:09;;;;;;;11.63;5.07;;;19.90;99.90;;;;;;4949939;28;20202;-65
2023/05/24 10:59:40;;;;;;;14.17;5.30;;;19.80;99.90;;;;;;4949931;28;20231;-65
2023/05/24 11:02:12;;;;;;;13.13;4.63;;;20.40;99.90;;;;;;4945284;28;20224;-65
2023/05/24 11:04:45;;;;;;;12.37;5.10;;;20.60;99.90;;;;;;4950976;28;20268;-65
2023/05/24 11:07:15;;;;;;;11.00;4.83;;;20.40;99.90;;;;;;4962243;28;20275;-65
2023/05/24 11:09:51;;;;;;;14.80;5.03;;;20.40;99.90;;;;;;4956921;28;20244;-65
2023/05/24 11:12:21;;;;;;;9.77;4.23;;;20.90;99.90;;;;;;4956085;28;20539;-65
2023/05/24 11:14:51;;;;;;;12.37;5.03;;;21.40;99.90;;;;;;4950569;28;20793;-65
2023/05/24 11:17:21;;;;;;;10.43;4.87;;;21.80;99.90;;;;;;4949833;28;20234;-65
2023/05/24 11:19:52;;;;;;;12.23;4.87;;;21.80;99.90;;;;;;4954870;28;20223;-65
2023/05/24 11:22:22;;;;;;;11.47;4.93;;;21.10;99.90;;;;;;4955166;28;20228;-65
2023/05/24 11:24:52;;;;;;;12.43;4.67;;;20.40;99.90;;;;;;4954032;28;20236;-65
2023/05/24 11:27:23;;;;;;;13.40;5.60;;;20.10;99.90;;;;;;4954752;28;20230;-65
2023/05/24 11:29:52;;;;;;;10.57;5.07;;;20.50;99.90;;;;;;4954479;28;20251;-65
2023/05/24 11:32:22;;;;;;;10.97;5.03;;;21.00;99.90;;;;;;4952713;28;20294;-65
2023/05/24 11:34:51;;;;;;;13.50;5.10;;;20.60;99.90;;;;;;4953758;28;20227;-65
2023/05/24 11:37:20;;;;;;;13.03;5.03;;;20.30;99.90;;;;;;4953832;28;20249;-65
2023/05/24 11:40:08;;;;;;;8.30;4.30;;;20.60;99.90;;;;;;4946302;28;20230;-65
2023/05/24 11:42:38;;;;;;;11.07;4.70;;;21.00;99.90;;;;;;4951169;28;20201;-64
2023/05/24 11:45:09;;;;;;;7.00;4.43;;;20.70;99.90;;;;;;4950547;28;20644;-65
2023/05/24 11:47:38;;;;;;;10.70;4.40;;;20.30;99.90;;;;;;4947486;28;20219;-65
2023/05/24 11:50:07;;;;;;;8.77;4.47;;;20.40;99.90;;;;;;4947781;28;20342;-65
2023/05/24 11:52:39;;;;;;;10.33;4.20;;;20.70;99.90;;;;;;4952255;28;20239;-65
2023/05/24 11:55:12;;;;;;;11.27;4.60;;;21.00;99.90;;;;;;4942390;28;20230;-65
2023/05/24 11:57:52;;;;;;;10.20;4.17;;;21.00;99.90;;;;;;4949226;28;20208;-64
2023/05/24 12:00:24;;;;;;;5.83;3.40;;;20.80;99.90;;;;;;4950516;28;20516;-65
2023/05/24 12:02:56;;;;;;;7.30;3.87;;;21.10;99.90;;;;;;4947713;28;20231;-65
2023/05/24 12:05:24;;;;;;;11.17;4.00;;;21.30;99.90;;;;;;4947581;28;20224;-65
2023/05/24 12:08:03;;;;;;;8.23;4.53;;;21.00;99.90;;;;;;4950008;28;20223;-64
2023/05/24 12:10:33;;;;;;;11.17;4.37;;;21.40;99.90;;;;;;4948058;28;20225;-65
2023/05/24 12:13:03;;;;;;;7.80;3.67;;;21.60;99.90;;;;;;4942422;28;20233;-65
2023/05/24 12:15:32;;;;;;;6.83;3.53;;;21.90;99.90;;;;;;4949267;28;20187;-64
2023/05/24 12:18:00;;;;;;;10.33;3.37;;;21.90;99.90;;;;;;4949641;28;20202;-65
2023/05/24 12:20:29;;;;;;;9.73;3.87;;;22.10;99.90;;;;;;4949521;28;20231;-65
2023/05/24 12:22:57;;;;;;;8.43;3.83;;;22.20;99.90;;;;;;4946091;28;20221;-65
2023/05/24 12:25:27;;;;;;;6.17;3.67;;;22.30;99.90;;;;;;4946605;28;20261;-64
2023/05/24 12:27:56;;;;;;;10.73;3.87;;;22.20;99.90;;;;;;4947549;28;20226;-65
2023/05/24 12:30:27;;;;;;;8.50;3.60;;;22.20;99.90;;;;;;4947378;28;20575;-60
2023/05/24 12:32:56;;;;;;;9.07;3.97;;;21.90;99.90;;;;;;4949186;28;20186;-64
2023/05/24 12:35:24;;;;;;;7.10;3.43;;;21.80;99.90;;;;;;4950409;28;20221;-65
2023/05/24 12:37:59;;;;;;;8.63;3.90;;;21.50;99.90;;;;;;4946741;28;20233;-64
2023/05/24 12:40:28;;;;;;;7.70;3.10;;;21.40;99.90;;;;;;4950547;28;20223;-64
2023/05/24 12:42:58;;;;;;;12.53;3.60;;;21.00;99.90;;;;;;4949381;28;20228;-64
2023/05/24 12:45:28;;;;;;;7.20;4.07;;;21.00;99.90;;;;;;4948453;28;20595;-64
2023/05/24 12:47:58;;;;;;;7.57;3.87;;;21.00;99.90;;;;;;4946909;29;20234;-64
2023/05/24 12:50:27;;;;;;;12.63;4.00;;;21.40;99.90;;;;;;4950170;28;20232;-65
2023/05/24 12:52:56;;;;;;;6.97;4.07;;;21.00;99.90;;;;;;4950118;28;20590;-65
2023/05/24 12:55:25;;;;;;;9.60;3.90;;;21.00;99.90;;;;;;4950415;28;20262;-65
2023/05/24 12:57:55;;;;;;;8.03;3.70;;;21.20;99.90;;;;;;4950305;28;20228;-65